»·PEaware :: N802TZ KSDM-KSMX

N802TZ :: KSDM-KSMX

FLIGHT INFORMATION

Flight Status: Arrived
Operator: Privately registered:
United States
More flights under this callsign
Pilot: Vinicius U. (17612)
Aircraft: PIPER PA-46-310/350P MALIBU MIRAGE
(PA46)
More flights by this aircraft type
Origin: KSDM Brown Mun
United States
Destination: KSMX Santa Maria Pub/Capt Hancock
United States
More flights between these airports :: More routes between these airports
Route: +MZB V25 LAX V299 VTU V25 RZS
File this flight plan on PilotEdge
Remarks:
Altitude:
(Current/Filed)
18,000ft
Speed:
(Current/Filed)
195kts
Departed: 05-Jan-18 11:37 AM
Arrived: 05-Jan-18 01:53 PM
Distance/Time
Traveled:
222nm/2:16
Distance/Time
To Go:
Arrived

Flight Plot

Page will automatically refresh every two minutes.

Flight plan parsing failed; only flown route is shown


Map Options




Map Legend


Flown Route
Filed Route
Departure Airport
Arrival Airport
Navaid (VOR, NDB)
Fix

Horizontal Profiles

Position Reports

Time Latitude Longitude Heading Altitude Ground
Speed
05-Jan-18 11:27 32.571329 -116.992800 290 530ft 0kts
05-Jan-18 11:28 32.571329 -116.992800 290 530ft 0kts
05-Jan-18 11:29 32.571329 -116.992800 290 530ft 0kts
05-Jan-18 11:30 32.571329 -116.992800 290 530ft 0kts
05-Jan-18 11:31 32.571329 -116.992801 290 530ft 0kts
05-Jan-18 11:32 32.571330 -116.992803 290 530ft 0kts
05-Jan-18 11:33 32.571331 -116.992805 290 530ft 0kts
05-Jan-18 11:34 32.571331 -116.992807 290 530ft 0kts
05-Jan-18 11:35 32.572004 -116.991360 99 530ft 10kts
05-Jan-18 11:36 32.570989 -116.985753 98 530ft 22kts
05-Jan-18 11:37 32.570289 -116.978295 95 530ft 23kts
05-Jan-18 11:38 32.569652 -116.970935 93 530ft 20kts
05-Jan-18 11:39 32.570962 -116.967974 2 530ft 10kts
05-Jan-18 11:40 32.571153 -116.967962 2 530ft 0kts
05-Jan-18 11:41 32.571154 -116.967962 2 530ft 0kts
05-Jan-18 11:42 32.571752 -116.968865 275 530ft 25kts
05-Jan-18 11:43 32.575644 -116.995513 291 1128ft 87kts
05-Jan-18 11:44 32.586466 -117.027324 292 1836ft 128kts
05-Jan-18 11:45 32.600404 -117.068064 291 2666ft 129kts
05-Jan-18 11:46 32.613339 -117.106139 291 3607ft 123kts
05-Jan-18 11:47 32.626912 -117.145682 292 4327ft 133kts
05-Jan-18 11:48 32.640616 -117.186142 291 5160ft 129kts
05-Jan-18 11:49 32.665289 -117.213168 350 5949ft 134kts
05-Jan-18 11:50 32.703763 -117.217587 349 6583ft 142kts
05-Jan-18 11:51 32.743660 -117.221591 351 7233ft 143kts
05-Jan-18 11:52 32.783153 -117.225493 347 7932ft 140kts
05-Jan-18 11:53 32.812227 -117.249316 303 8579ft 134kts
05-Jan-18 11:54 32.838361 -117.281070 317 9183ft 137kts
05-Jan-18 11:55 32.869360 -117.309774 315 9795ft 143kts
05-Jan-18 11:56 32.898073 -117.342257 313 10447ft 140kts
05-Jan-18 11:57 32.926389 -117.371914 314 11225ft 132kts
05-Jan-18 11:58 32.953611 -117.400064 313 12024ft 128kts
05-Jan-18 11:59 32.981042 -117.427299 313 12783ft 131kts
05-Jan-18 12:00 33.011267 -117.456007 314 13311ft 144kts
05-Jan-18 12:01 33.042304 -117.486995 312 13888ft 145kts
05-Jan-18 12:02 33.073602 -117.517283 312 14577ft 144kts
05-Jan-18 12:03 33.105121 -117.546769 312 15274ft 142kts
05-Jan-18 12:04 33.136008 -117.575393 313 15977ft 137kts
05-Jan-18 12:05 33.166634 -117.604073 313 16551ft 144kts
05-Jan-18 12:06 33.198913 -117.634398 313 17059ft 149kts
05-Jan-18 12:07 33.232030 -117.664863 313 17562ft 150kts
05-Jan-18 12:08 33.265328 -117.695079 312 18061ft 149kts
05-Jan-18 12:09 33.299122 -117.726622 307 18306ft 162kts
05-Jan-18 12:10 33.332101 -117.766519 304 18300ft 173kts
05-Jan-18 12:11 33.364607 -117.808231 304 18298ft 169kts
05-Jan-18 12:12 33.396631 -117.849161 304 18298ft 168kts
05-Jan-18 12:13 33.428864 -117.889788 305 18299ft 169kts
05-Jan-18 12:14 33.462628 -117.929487 306 18298ft 169kts
05-Jan-18 12:15 33.496600 -117.968572 306 18298ft 169kts
05-Jan-18 12:16 33.530914 -118.007144 306 18298ft 169kts
05-Jan-18 12:17 33.565684 -118.045661 306 18300ft 170kts
05-Jan-18 12:18 33.600847 -118.084794 306 18298ft 175kts
05-Jan-18 12:19 33.636147 -118.122239 308 18295ft 163kts
05-Jan-18 12:20 33.670183 -118.155881 309 18296ft 155kts
05-Jan-18 12:21 33.699964 -118.185288 309 18302ft 164kts
05-Jan-18 12:22 33.736261 -118.221849 309 18303ft 173kts
05-Jan-18 12:23 33.772699 -118.260479 306 18312ft 175kts
05-Jan-18 12:24 33.808113 -118.300948 305 18316ft 175kts
05-Jan-18 12:25 33.843285 -118.341965 305 18316ft 176kts
05-Jan-18 12:26 33.878754 -118.381608 309 18317ft 174kts
05-Jan-18 12:27 33.918150 -118.415906 316 18317ft 176kts
05-Jan-18 12:28 33.947007 -118.455744 272 18320ft 149kts
05-Jan-18 12:29 33.954576 -118.504720 284 18317ft 153kts
05-Jan-18 12:30 33.971838 -118.551947 279 18317ft 151kts
05-Jan-18 12:31 33.984586 -118.600236 280 18317ft 151kts
05-Jan-18 12:32 33.997040 -118.639999 283 18317ft 153kts
05-Jan-18 12:33 34.015968 -118.695433 283 18317ft 153kts
05-Jan-18 12:34 34.031351 -118.740508 283 18358ft 150kts
05-Jan-18 12:35 34.044345 -118.779453 283 18296ft 155kts
05-Jan-18 12:36 34.058066 -118.828291 279 18286ft 151kts
05-Jan-18 12:37 34.071498 -118.885163 279 18287ft 151kts
05-Jan-18 12:38 34.081213 -118.925864 279 18288ft 150kts
05-Jan-18 12:39 34.093062 -118.974452 280 18287ft 152kts
05-Jan-18 12:40 34.106810 -119.022478 283 18288ft 151kts
05-Jan-18 12:41 34.121102 -119.070316 282 18288ft 150kts
05-Jan-18 12:42 34.136759 -119.117598 293 18286ft 158kts
05-Jan-18 12:43 34.171169 -119.154727 307 18287ft 168kts
05-Jan-18 12:44 34.199319 -119.196534 287 18287ft 155kts
05-Jan-18 12:45 34.220842 -119.242033 292 18287ft 158kts
05-Jan-18 12:46 34.245179 -119.286285 292 18287ft 158kts
05-Jan-18 12:47 34.269155 -119.329667 292 18282ft 159kts
05-Jan-18 12:48 34.293897 -119.374001 292 18279ft 159kts
05-Jan-18 12:49 34.318603 -119.418303 292 18279ft 158kts
05-Jan-18 12:50 34.343119 -119.462404 292 18278ft 158kts
05-Jan-18 12:51 34.367577 -119.506437 292 18278ft 157kts
05-Jan-18 12:52 34.392251 -119.550512 292 18276ft 158kts
05-Jan-18 12:53 34.417708 -119.596643 292 17797ft 174kts
05-Jan-18 12:54 34.444884 -119.650517 292 16623ft 195kts
05-Jan-18 12:55 34.472840 -119.707734 295 15425ft 198kts
05-Jan-18 12:56 34.502564 -119.763958 299 14226ft 198kts
05-Jan-18 12:57 34.531747 -119.819595 298 13036ft 195kts
05-Jan-18 12:58 34.560287 -119.874271 298 11838ft 189kts
05-Jan-18 12:59 34.588443 -119.927979 299 10637ft 188kts
05-Jan-18 13:00 34.615646 -119.981293 299 9798ft 185kts
05-Jan-18 13:01 34.642276 -120.035026 299 9099ft 186kts
05-Jan-18 13:02 34.668633 -120.089312 299 8399ft 187kts
05-Jan-18 13:03 34.694440 -120.144615 299 7700ft 188kts
05-Jan-18 13:04 34.719920 -120.200260 299 7000ft 188kts
05-Jan-18 13:05 34.745293 -120.256248 300 6299ft 188kts
05-Jan-18 13:06 34.769702 -120.310252 299 6003ft 172kts
05-Jan-18 13:07 34.792958 -120.359239 302 6008ft 164kts
05-Jan-18 13:08 34.817229 -120.406255 302 6008ft 163kts
05-Jan-18 13:09 34.841186 -120.452991 303 6006ft 163kts
05-Jan-18 13:10 34.866388 -120.498710 304 6005ft 163kts
05-Jan-18 13:11 34.891524 -120.544425 304 6005ft 160kts
05-Jan-18 13:12 34.916562 -120.588903 304 6007ft 158kts
05-Jan-18 13:13 34.944294 -120.630485 317 5857ft 166kts
05-Jan-18 13:14 34.980704 -120.670240 317 5092ft 178kts
05-Jan-18 13:15 35.017386 -120.710420 317 4242ft 176kts
05-Jan-18 13:16 35.051959 -120.748237 317 3995ft 156kts
05-Jan-18 13:17 35.086795 -120.760787 59 4000ft 152kts
05-Jan-18 13:18 35.080635 -120.711565 102 3997ft 147kts
05-Jan-18 13:19 35.068773 -120.660305 116 3393ft 165kts
05-Jan-18 13:20 35.039338 -120.619711 136 2981ft 149kts
05-Jan-18 13:21 35.011063 -120.587328 137 3041ft 136kts
05-Jan-18 13:22 34.985656 -120.555650 138 2525ft 130kts
05-Jan-18 13:23 34.959976 -120.525004 134 1909ft 127kts
05-Jan-18 13:24 34.933738 -120.494837 133 1149ft 125kts
05-Jan-18 13:25 34.915735 -120.461269 59 1179ft 124kts
05-Jan-18 13:26 34.941935 -120.470134 315 2088ft 131kts
05-Jan-18 13:27 34.971556 -120.499360 317 3082ft 137kts
05-Jan-18 13:28 35.000882 -120.530582 320 4056ft 141kts
05-Jan-18 13:29 35.030373 -120.559453 320 4929ft 136kts
05-Jan-18 13:30 35.063302 -120.591623 320 5001ft 164kts
05-Jan-18 13:31 35.083210 -120.639024 247 4996ft 172kts
05-Jan-18 13:32 35.041563 -120.634498 148 5000ft 175kts
05-Jan-18 13:33 35.000759 -120.602617 147 4997ft 171kts
05-Jan-18 13:34 34.960532 -120.572191 148 4996ft 169kts
05-Jan-18 13:35 34.920413 -120.542063 148 4997ft 168kts
05-Jan-18 13:36 34.880581 -120.512039 148 4998ft 168kts
05-Jan-18 13:37 34.840861 -120.481946 148 4998ft 168kts
05-Jan-18 13:38 34.801034 -120.451809 148 5000ft 167kts
05-Jan-18 13:39 34.761405 -120.421818 148 5000ft 168kts
05-Jan-18 13:40 34.721695 -120.391519 148 4999ft 168kts
05-Jan-18 13:41 34.682123 -120.361217 148 5000ft 168kts
05-Jan-18 13:42 34.642466 -120.330979 148 5000ft 168kts
05-Jan-18 13:43 34.609716 -120.294412 82 4999ft 166kts
05-Jan-18 13:44 34.644363 -120.263962 22 5000ft 160kts
05-Jan-18 13:45 34.684599 -120.240988 23 5000ft 160kts
05-Jan-18 13:46 34.724972 -120.232588 308 4829ft 163kts
05-Jan-18 13:47 34.751148 -120.276471 313 4606ft 150kts
05-Jan-18 13:48 34.779416 -120.310580 312 4058ft 137kts
05-Jan-18 13:49 34.805340 -120.341266 317 3301ft 123kts
05-Jan-18 13:50 34.826453 -120.367502 311 3006ft 103kts
05-Jan-18 13:51 34.846648 -120.390461 317 2333ft 93kts
05-Jan-18 13:52 34.866016 -120.413777 316 1728ft 92kts
05-Jan-18 13:53 34.884323 -120.435976 318 937ft 84kts
05-Jan-18 13:54 34.901380 -120.456159 314 697ft 97kts
05-Jan-18 13:55 34.887424 -120.477695 162 1241ft 143kts
05-Jan-18 13:56 34.857174 -120.446639 124 1304ft 127kts
05-Jan-18 13:57 34.871980 -120.429090 342 866ft 85kts
05-Jan-18 13:58 34.892362 -120.445368 315 305ft 82kts
05-Jan-18 13:59 34.900133 -120.453510 357 265ft 0kts
05-Jan-18 14:00 34.900135 -120.453510 357 265ft 0kts
05-Jan-18 14:01 34.900326 -120.452775 137 265ft 13kts
05-Jan-18 14:02 34.896334 -120.448066 132 265ft 15kts
05-Jan-18 14:03 34.896846 -120.446373 45 265ft 0kts
05-Jan-18 14:04 34.896846 -120.446373 45 265ft 0kts

Navigation Log

Ident Type
Flight plan parsing failed, navigation log unavailable